Time;durP1;ratioP1;P1;durP2;ratioP2;P2;SDS_P1;SDS_P2;PMS_P1;PMS_P2;Temp;Humidity;BMP_temperature;BMP_pressure;BME280_temperature;BME280_humidity;BME280_pressure;Samples;Min_cycle;Max_cycle;Signal;HPM_P1;HPM_P2
2019/06/18 00:00:51;;;;;;;11.95;10.8;;;;;;;15.15;77.32324;95264.76;;;;
2019/06/18 00:01:52;;;;;;;11.95;10.8;;;;;;;15.15;77.32324;95264.76;;;;
2019/06/18 00:02:53;;;;;;;11.95;10.8;;;;;;;15.15;77.32324;95264.76;;;;
2019/06/18 00:03:54;;;;;;;11.95;10.8;;;;;;;15.15;77.32324;95264.76;;;;
2019/06/18 00:04:55;;;;;;;11.95;10.8;;;;;;;15.15;77.32324;95264.76;;;;
2019/06/18 00:05:56;;;;;;;11.1;10;;;;;;;15.04;78.22168;95247.29;;;;
2019/06/18 00:06:58;;;;;;;11.1;10;;;;;;;15.04;78.22168;95247.29;;;;
2019/06/18 00:07:59;;;;;;;11.1;10;;;;;;;15.04;78.22168;95247.29;;;;
2019/06/18 00:09:00;;;;;;;11.1;10;;;;;;;15.04;78.22168;95247.29;;;;
2019/06/18 00:10:01;;;;;;;11.1;10;;;;;;;15.04;78.22168;95247.29;;;;
2019/06/18 00:11:02;;;;;;;11.1;10;;;;;;;15.04;78.22168;95247.29;;;;
2019/06/18 00:12:03;;;;;;;11.1;10;;;;;;;15.04;78.22168;95247.29;;;;
2019/06/18 00:13:05;;;;;;;11.1;10;;;;;;;15.04;78.22168;95247.29;;;;
2019/06/18 00:14:06;;;;;;;11.1;10;;;;;;;15.04;78.22168;95247.29;;;;
2019/06/18 00:15:07;;;;;;;11.1;10;;;;;;;15.04;78.22168;95247.29;;;;
2019/06/18 00:16:08;;;;;;;11.1;10;;;;;;;15.04;78.22168;95247.29;;;;
2019/06/18 00:17:09;;;;;;;12.05;10.95;;;;;;;14.85;78.98633;95242.86;;;;
2019/06/18 00:18:10;;;;;;;12.05;10.95;;;;;;;14.85;78.98633;95242.86;;;;
2019/06/18 00:19:11;;;;;;;12.05;10.95;;;;;;;14.85;78.98633;95242.86;;;;
2019/06/18 00:20:12;;;;;;;12.05;10.95;;;;;;;14.85;78.98633;95242.86;;;;
2019/06/18 00:21:13;;;;;;;12.05;10.95;;;;;;;14.85;78.98633;95242.86;;;;
2019/06/18 00:22:14;;;;;;;12.05;10.95;;;;;;;14.85;78.98633;95242.86;;;;
2019/06/18 00:23:15;;;;;;;12.05;10.95;;;;;;;14.85;78.98633;95242.86;;;;
2019/06/18 00:24:16;;;;;;;12.05;10.95;;;;;;;14.85;78.98633;95242.86;;;;
2019/06/18 00:25:17;;;;;;;12.05;10.95;;;;;;;14.85;78.98633;95242.86;;;;
2019/06/18 00:26:18;;;;;;;12.05;10.95;;;;;;;14.85;78.98633;95242.86;;;;
2019/06/18 00:27:19;;;;;;;12.45;11.35;;;;;;;14.76;79.82324;95230.43;;;;
2019/06/18 00:28:20;;;;;;;12.45;11.35;;;;;;;14.76;79.82324;95230.43;;;;
2019/06/18 00:29:22;;;;;;;12.45;11.35;;;;;;;14.76;79.82324;95230.43;;;;
2019/06/18 00:30:23;;;;;;;12.45;11.35;;;;;;;14.76;79.82324;95230.43;;;;
2019/06/18 00:31:24;;;;;;;12.45;11.35;;;;;;;14.76;79.82324;95230.43;;;;
2019/06/18 00:32:25;;;;;;;12.45;11.35;;;;;;;14.76;79.82324;95230.43;;;;
2019/06/18 00:33:26;;;;;;;12.45;11.35;;;;;;;14.76;79.82324;95230.43;;;;
2019/06/18 00:34:27;;;;;;;12.45;11.35;;;;;;;14.76;79.82324;95230.43;;;;
2019/06/18 00:35:28;;;;;;;12.45;11.35;;;;;;;14.76;79.82324;95230.43;;;;
2019/06/18 00:36:29;;;;;;;12.45;11.35;;;;;;;14.76;79.82324;95230.43;;;;
2019/06/18 00:37:30;;;;;;;12.45;11.35;;;;;;;14.76;79.82324;95230.43;;;;
2019/06/18 00:38:31;;;;;;;11.85;10.75;;;;;;;14.61;80.60352;95220.4;;;;
2019/06/18 00:39:32;;;;;;;11.85;10.75;;;;;;;14.61;80.60352;95220.4;;;;
2019/06/18 00:40:33;;;;;;;11.85;10.75;;;;;;;14.61;80.60352;95220.4;;;;
2019/06/18 00:41:34;;;;;;;11.85;10.75;;;;;;;14.61;80.60352;95220.4;;;;
2019/06/18 00:42:35;;;;;;;11.85;10.75;;;;;;;14.61;80.60352;95220.4;;;;
2019/06/18 00:43:37;;;;;;;11.85;10.75;;;;;;;14.61;80.60352;95220.4;;;;
2019/06/18 00:44:38;;;;;;;11.85;10.75;;;;;;;14.61;80.60352;95220.4;;;;
2019/06/18 00:45:39;;;;;;;11.85;10.75;;;;;;;14.61;80.60352;95220.4;;;;
2019/06/18 00:46:40;;;;;;;11.85;10.75;;;;;;;14.61;80.60352;95220.4;;;;
2019/06/18 00:47:41;;;;;;;11.85;10.75;;;;;;;14.61;80.60352;95220.4;;;;
2019/06/18 00:48:42;;;;;;;11.45;10.45;;;;;;;14.52;81.38379;95227.4;;;;
2019/06/18 00:49:43;;;;;;;11.45;10.45;;;;;;;14.52;81.38379;95227.4;;;;
2019/06/18 00:50:44;;;;;;;11.45;10.45;;;;;;;14.52;81.38379;95227.4;;;;
2019/06/18 00:51:45;;;;;;;11.45;10.45;;;;;;;14.52;81.38379;95227.4;;;;
2019/06/18 00:52:46;;;;;;;11.45;10.45;;;;;;;14.52;81.38379;95227.4;;;;
2019/06/18 00:53:47;;;;;;;11.45;10.45;;;;;;;14.52;81.38379;95227.4;;;;
2019/06/18 00:54:48;;;;;;;11.45;10.45;;;;;;;14.52;81.38379;95227.4;;;;
2019/06/18 00:55:49;;;;;;;11.45;10.45;;;;;;;14.52;81.38379;95227.4;;;;
2019/06/18 00:56:50;;;;;;;11.45;10.45;;;;;;;14.52;81.38379;95227.4;;;;
2019/06/18 00:57:51;;;;;;;11.45;10.45;;;;;;;14.52;81.38379;95227.4;;;;
2019/06/18 00:58:52;;;;;;;11.75;10.65;;;;;;;14.37;82.07031;95220.37;;;;
2019/06/18 00:59:54;;;;;;;11.75;10.65;;;;;;;14.37;82.07031;95220.37;;;;
2019/06/18 01:00:55;;;;;;;11.75;10.65;;;;;;;14.37;82.07031;95220.37;;;;
2019/06/18 01:01:56;;;;;;;11.75;10.65;;;;;;;14.37;82.07031;95220.37;;;;
2019/06/18 01:02:57;;;;;;;11.75;10.65;;;;;;;14.37;82.07031;95220.37;;;;
2019/06/18 01:03:58;;;;;;;11.75;10.65;;;;;;;14.37;82.07031;95220.37;;;;
2019/06/18 01:04:59;;;;;;;11.75;10.65;;;;;;;14.37;82.07031;95220.37;;;;
2019/06/18 01:06:00;;;;;;;11.75;10.65;;;;;;;14.37;82.07031;95220.37;;;;
2019/06/18 01:07:02;;;;;;;11.75;10.65;;;;;;;14.37;82.07031;95220.37;;;;
2019/06/18 01:08:03;;;;;;;11.75;10.65;;;;;;;14.37;82.07031;95220.37;;;;
2019/06/18 01:09:04;;;;;;;11.75;10.65;;;;;;;14.37;82.07031;95220.37;;;;
2019/06/18 01:10:05;;;;;;;12.3;11.1;;;;;;;14.29;82.82715;95209.59;;;;
2019/06/18 01:11:07;;;;;;;12.3;11.1;;;;;;;14.29;82.82715;95209.59;;;;
2019/06/18 01:12:08;;;;;;;12.3;11.1;;;;;;;14.29;82.82715;95209.59;;;;
2019/06/18 01:13:09;;;;;;;12.3;11.1;;;;;;;14.29;82.82715;95209.59;;;;
2019/06/18 01:14:11;;;;;;;12.3;11.1;;;;;;;14.29;82.82715;95209.59;;;;
2019/06/18 01:15:12;;;;;;;12.3;11.1;;;;;;;14.29;82.82715;95209.59;;;;
2019/06/18 01:16:14;;;;;;;12.3;11.1;;;;;;;14.29;82.82715;95209.59;;;;
2019/06/18 01:17:15;;;;;;;12.3;11.1;;;;;;;14.29;82.82715;95209.59;;;;
2019/06/18 01:18:16;;;;;;;12.3;11.1;;;;;;;14.29;82.82715;95209.59;;;;
2019/06/18 01:19:17;;;;;;;12.3;11.1;;;;;;;14.29;82.82715;95209.59;;;;
2019/06/18 01:20:18;;;;;;;11.6;10.55;;;;;;;14.15;83.4375;95206.48;;;;
2019/06/18 01:21:19;;;;;;;11.6;10.55;;;;;;;14.15;83.4375;95206.48;;;;
2019/06/18 01:22:20;;;;;;;11.6;10.55;;;;;;;14.15;83.4375;95206.48;;;;
2019/06/18 01:23:22;;;;;;;11.6;10.55;;;;;;;14.15;83.4375;95206.48;;;;
2019/06/18 01:24:23;;;;;;;11.6;10.55;;;;;;;14.15;83.4375;95206.48;;;;
2019/06/18 01:25:24;;;;;;;11.6;10.55;;;;;;;14.15;83.4375;95206.48;;;;
2019/06/18 01:26:25;;;;;;;11.6;10.55;;;;;;;14.15;83.4375;95206.48;;;;
2019/06/18 01:27:26;;;;;;;11.6;10.55;;;;;;;14.15;83.4375;95206.48;;;;
2019/06/18 01:28:27;;;;;;;11.6;10.55;;;;;;;14.15;83.4375;95206.48;;;;
2019/06/18 01:29:29;;;;;;;11.6;10.55;;;;;;;14.15;83.4375;95206.48;;;;
2019/06/18 01:30:30;;;;;;;11.6;10.55;;;;;;;14.15;83.4375;95206.48;;;;
2019/06/18 01:31:31;;;;;;;11.25;10.25;;;;;;;14.1;84.11523;95202.5;;;;
2019/06/18 01:32:32;;;;;;;11.25;10.25;;;;;;;14.1;84.11523;95202.5;;;;
2019/06/18 01:33:33;;;;;;;11.25;10.25;;;;;;;14.1;84.11523;95202.5;;;;
2019/06/18 01:34:34;;;;;;;11.25;10.25;;;;;;;14.1;84.11523;95202.5;;;;
2019/06/18 01:35:35;;;;;;;11.25;10.25;;;;;;;14.1;84.11523;95202.5;;;;
2019/06/18 01:36:37;;;;;;;11.25;10.25;;;;;;;14.1;84.11523;95202.5;;;;
2019/06/18 01:37:38;;;;;;;11.25;10.25;;;;;;;14.1;84.11523;95202.5;;;;
2019/06/18 01:38:39;;;;;;;11.25;10.25;;;;;;;14.1;84.11523;95202.5;;;;
2019/06/18 01:39:40;;;;;;;11.25;10.25;;;;;;;14.1;84.11523;95202.5;;;;
2019/06/18 01:40:42;;;;;;;11.25;10.25;;;;;;;14.1;84.11523;95202.5;;;;
2019/06/18 01:41:43;;;;;;;11.55;10.45;;;;;;;13.94;84.58105;95202.89;;;;
2019/06/18 01:42:44;;;;;;;11.55;10.45;;;;;;;13.94;84.58105;95202.89;;;;
2019/06/18 01:43:45;;;;;;;11.55;10.45;;;;;;;13.94;84.58105;95202.89;;;;
2019/06/18 01:44:46;;;;;;;11.55;10.45;;;;;;;13.94;84.58105;95202.89;;;;
2019/06/18 01:45:47;;;;;;;11.55;10.45;;;;;;;13.94;84.58105;95202.89;;;;
2019/06/18 01:46:48;;;;;;;11.55;10.45;;;;;;;13.94;84.58105;95202.89;;;;
2019/06/18 01:47:49;;;;;;;11.55;10.45;;;;;;;13.94;84.58105;95202.89;;;;
2019/06/18 01:48:50;;;;;;;11.55;10.45;;;;;;;13.94;84.58105;95202.89;;;;
2019/06/18 01:49:51;;;;;;;11.55;10.45;;;;;;;13.94;84.58105;95202.89;;;;
2019/06/18 01:50:52;;;;;;;11.55;10.45;;;;;;;13.94;84.58105;95202.89;;;;
2019/06/18 01:51:54;;;;;;;12.2;11.1;;;;;;;13.85;85.12012;95203.64;;;;
2019/06/18 01:52:55;;;;;;;12.2;11.1;;;;;;;13.85;85.12012;95203.64;;;;
2019/06/18 01:53:56;;;;;;;12.2;11.1;;;;;;;13.85;85.12012;95203.64;;;;
2019/06/18 01:54:57;;;;;;;12.2;11.1;;;;;;;13.85;85.12012;95203.64;;;;
2019/06/18 01:55:59;;;;;;;12.2;11.1;;;;;;;13.85;85.12012;95203.64;;;;
2019/06/18 01:57:00;;;;;;;12.2;11.1;;;;;;;13.85;85.12012;95203.64;;;;
2019/06/18 01:58:01;;;;;;;12.2;11.1;;;;;;;13.85;85.12012;95203.64;;;;
2019/06/18 01:59:02;;;;;;;12.2;11.1;;;;;;;13.85;85.12012;95203.64;;;;
2019/06/18 02:00:03;;;;;;;12.2;11.1;;;;;;;13.85;85.12012;95203.64;;;;
2019/06/18 02:01:04;;;;;;;12.2;11.1;;;;;;;13.85;85.12012;95203.64;;;;
2019/06/18 02:02:05;;;;;;;12.2;11.1;;;;;;;13.85;85.12012;95203.64;;;;
2019/06/18 02:03:06;;;;;;;12.6;11.4;;;;;;;13.7;85.76758;95199.84;;;;
2019/06/18 02:04:07;;;;;;;12.6;11.4;;;;;;;13.7;85.76758;95199.84;;;;
2019/06/18 02:05:09;;;;;;;12.6;11.4;;;;;;;13.7;85.76758;95199.84;;;;
2019/06/18 02:06:10;;;;;;;12.6;11.4;;;;;;;13.7;85.76758;95199.84;;;;
2019/06/18 02:07:11;;;;;;;12.6;11.4;;;;;;;13.7;85.76758;95199.84;;;;
2019/06/18 02:08:12;;;;;;;12.6;11.4;;;;;;;13.7;85.76758;95199.84;;;;
2019/06/18 02:09:13;;;;;;;12.6;11.4;;;;;;;13.7;85.76758;95199.84;;;;
2019/06/18 02:10:14;;;;;;;12.6;11.4;;;;;;;13.7;85.76758;95199.84;;;;
2019/06/18 02:11:15;;;;;;;12.6;11.4;;;;;;;13.7;85.76758;95199.84;;;;
2019/06/18 02:12:16;;;;;;;12.6;11.4;;;;;;;13.7;85.76758;95199.84;;;;
2019/06/18 02:13:18;;;;;;;13.4;12;;;;;;;13.66;86.54395;95193.69;;;;
2019/06/18 02:14:19;;;;;;;13.4;12;;;;;;;13.66;86.54395;95193.69;;;;
2019/06/18 02:15:20;;;;;;;13.4;12;;;;;;;13.66;86.54395;95193.69;;;;
2019/06/18 02:16:21;;;;;;;13.4;12;;;;;;;13.66;86.54395;95193.69;;;;
2019/06/18 02:17:23;;;;;;;13.4;12;;;;;;;13.66;86.54395;95193.69;;;;
2019/06/18 02:18:24;;;;;;;13.4;12;;;;;;;13.66;86.54395;95193.69;;;;
2019/06/18 02:19:25;;;;;;;13.4;12;;;;;;;13.66;86.54395;95193.69;;;;
2019/06/18 02:20:26;;;;;;;13.4;12;;;;;;;13.66;86.54395;95193.69;;;;
2019/06/18 02:21:34;;;;;;;13.4;12;;;;;;;13.66;86.54395;95193.69;;;;
2019/06/18 02:22:35;;;;;;;13.4;12;;;;;;;13.66;86.54395;95193.69;;;;
2019/06/18 02:23:36;;;;;;;14.4;13.1;;;;;;;13.51;87;95196.66;;;;
2019/06/18 02:24:38;;;;;;;14.4;13.1;;;;;;;13.51;87;95196.66;;;;
2019/06/18 02:25:39;;;;;;;14.4;13.1;;;;;;;13.51;87;95196.66;;;;
2019/06/18 02:26:40;;;;;;;14.4;13.1;;;;;;;13.51;87;95196.66;;;;
2019/06/18 02:27:42;;;;;;;14.4;13.1;;;;;;;13.51;87;95196.66;;;;
2019/06/18 02:28:43;;;;;;;14.4;13.1;;;;;;;13.51;87;95196.66;;;;
2019/06/18 02:29:44;;;;;;;14.4;13.1;;;;;;;13.51;87;95196.66;;;;
2019/06/18 02:30:45;;;;;;;14.4;13.1;;;;;;;13.51;87;95196.66;;;;
2019/06/18 02:31:46;;;;;;;14.4;13.1;;;;;;;13.51;87;95196.66;;;;
2019/06/18 02:32:47;;;;;;;14.4;13.1;;;;;;;13.51;87;95196.66;;;;
2019/06/18 02:33:48;;;;;;;14.4;13.1;;;;;;;13.51;87;95196.66;;;;
2019/06/18 02:34:49;;;;;;;13.2;11.9;;;;;;;13.42;87.56055;95195.06;;;;
2019/06/18 02:35:50;;;;;;;13.2;11.9;;;;;;;13.42;87.56055;95195.06;;;;
2019/06/18 02:36:52;;;;;;;13.2;11.9;;;;;;;13.42;87.56055;95195.06;;;;
2019/06/18 02:37:53;;;;;;;13.2;11.9;;;;;;;13.42;87.56055;95195.06;;;;
2019/06/18 02:38:54;;;;;;;13.2;11.9;;;;;;;13.42;87.56055;95195.06;;;;
2019/06/18 02:39:55;;;;;;;13.2;11.9;;;;;;;13.42;87.56055;95195.06;;;;
2019/06/18 02:40:56;;;;;;;13.2;11.9;;;;;;;13.42;87.56055;95195.06;;;;
2019/06/18 02:41:57;;;;;;;13.2;11.9;;;;;;;13.42;87.56055;95195.06;;;;
2019/06/18 02:42:58;;;;;;;13.2;11.9;;;;;;;13.42;87.56055;95195.06;;;;
2019/06/18 02:44:00;;;;;;;13.2;11.9;;;;;;;13.42;87.56055;95195.06;;;;
2019/06/18 02:45:01;;;;;;;13.25;11.95;;;;;;;13.25;87.98633;95199.36;;;;
2019/06/18 02:46:02;;;;;;;13.25;11.95;;;;;;;13.25;87.98633;95199.36;;;;
2019/06/18 02:47:04;;;;;;;13.25;11.95;;;;;;;13.25;87.98633;95199.36;;;;
2019/06/18 02:48:05;;;;;;;13.25;11.95;;;;;;;13.25;87.98633;95199.36;;;;
2019/06/18 02:49:06;;;;;;;13.25;11.95;;;;;;;13.25;87.98633;95199.36;;;;
2019/06/18 02:50:07;;;;;;;13.25;11.95;;;;;;;13.25;87.98633;95199.36;;;;
2019/06/18 02:51:08;;;;;;;13.25;11.95;;;;;;;13.25;87.98633;95199.36;;;;
2019/06/18 02:52:09;;;;;;;13.25;11.95;;;;;;;13.25;87.98633;95199.36;;;;
2019/06/18 02:53:10;;;;;;;13.25;11.95;;;;;;;13.25;87.98633;95199.36;;;;
2019/06/18 02:54:11;;;;;;;13.25;11.95;;;;;;;13.25;87.98633;95199.36;;;;
2019/06/18 02:55:12;;;;;;;13.25;11.95;;;;;;;13.25;87.98633;95199.36;;;;
2019/06/18 02:56:13;;;;;;;12.85;11.65;;;;;;;13.16;88.63379;95197.24;;;;
2019/06/18 02:57:15;;;;;;;12.85;11.65;;;;;;;13.16;88.63379;95197.24;;;;
2019/06/18 02:58:16;;;;;;;12.85;11.65;;;;;;;13.16;88.63379;95197.24;;;;
2019/06/18 02:59:17;;;;;;;12.85;11.65;;;;;;;13.16;88.63379;95197.24;;;;
2019/06/18 03:00:18;;;;;;;12.85;11.65;;;;;;;13.16;88.63379;95197.24;;;;
2019/06/18 03:01:39;;;;;;;12.85;11.65;;;;;;;13.16;88.63379;95197.24;;;;
2019/06/18 03:02:47;;;;;;;12.85;11.65;;;;;;;13.16;88.63379;95197.24;;;;
2019/06/18 03:03:48;;;;;;;12.85;11.65;;;;;;;13.16;88.63379;95197.24;;;;
2019/06/18 03:04:49;;;;;;;12.85;11.65;;;;;;;13.16;88.63379;95197.24;;;;
2019/06/18 03:05:50;;;;;;;12.85;11.65;;;;;;;13.01;89.05469;95196.48;;;;
2019/06/18 03:06:51;;;;;;;12.85;11.65;;;;;;;13.01;89.05469;95196.48;;;;
2019/06/18 03:07:52;;;;;;;12.85;11.65;;;;;;;13.01;89.05469;95196.48;;;;
2019/06/18 03:08:53;;;;;;;12.85;11.65;;;;;;;13.01;89.05469;95196.48;;;;
2019/06/18 03:09:54;;;;;;;12.85;11.65;;;;;;;13.01;89.05469;95196.48;;;;
2019/06/18 03:10:56;;;;;;;12.85;11.65;;;;;;;13.01;89.05469;95196.48;;;;
2019/06/18 03:11:57;;;;;;;12.85;11.65;;;;;;;13.01;89.05469;95196.48;;;;
2019/06/18 03:12:58;;;;;;;12.85;11.65;;;;;;;13.01;89.05469;95196.48;;;;
2019/06/18 03:13:59;;;;;;;12.85;11.65;;;;;;;13.01;89.05469;95196.48;;;;
2019/06/18 03:15:00;;;;;;;12.85;11.65;;;;;;;13.01;89.05469;95196.48;;;;
2019/06/18 03:16:01;;;;;;;12.85;11.65;;;;;;;13.01;89.05469;95196.48;;;;
2019/06/18 03:17:02;;;;;;;12.85;11.65;;;;;;;13.01;89.05469;95196.48;;;;
2019/06/18 03:18:03;;;;;;;12.85;11.65;;;;;;;13.01;89.05469;95196.48;;;;
2019/06/18 03:19:04;;;;;;;12.85;11.65;;;;;;;13.01;89.05469;95196.48;;;;
2019/06/18 03:20:05;;;;;;;12.85;11.65;;;;;;;13.01;89.05469;95196.48;;;;
2019/06/18 03:21:07;;;;;;;12.85;11.65;;;;;;;13.01;89.05469;95196.48;;;;
2019/06/18 03:22:08;;;;;;;12.85;11.65;;;;;;;13.01;89.05469;95196.48;;;;
2019/06/18 03:23:09;;;;;;;12.85;11.65;;;;;;;13.01;89.05469;95196.48;;;;
2019/06/18 03:24:10;;;;;;;12.85;11.65;;;;;;;13.01;89.05469;95196.48;;;;
2019/06/18 03:25:11;;;;;;;12.85;11.65;;;;;;;13.01;89.05469;95196.48;;;;
2019/06/18 03:26:12;;;;;;;12.85;11.65;;;;;;;13.01;89.05469;95196.48;;;;
2019/06/18 03:27:13;;;;;;;12.8;11.4;;;;;;;12.82;89.87402;95196.94;;;;
2019/06/18 03:28:14;;;;;;;12.8;11.4;;;;;;;12.82;89.87402;95196.94;;;;
2019/06/18 03:29:15;;;;;;;12.8;11.4;;;;;;;12.82;89.87402;95196.94;;;;
2019/06/18 03:30:16;;;;;;;12.8;11.4;;;;;;;12.82;89.87402;95196.94;;;;
2019/06/18 03:31:17;;;;;;;12.8;11.4;;;;;;;12.82;89.87402;95196.94;;;;
2019/06/18 03:32:18;;;;;;;12.8;11.4;;;;;;;12.82;89.87402;95196.94;;;;
2019/06/18 03:33:19;;;;;;;12.8;11.4;;;;;;;12.82;89.87402;95196.94;;;;
2019/06/18 03:34:20;;;;;;;12.8;11.4;;;;;;;12.82;89.87402;95196.94;;;;
2019/06/18 03:35:21;;;;;;;12.8;11.4;;;;;;;12.82;89.87402;95196.94;;;;
2019/06/18 03:36:23;;;;;;;12.8;11.4;;;;;;;12.82;89.87402;95196.94;;;;
2019/06/18 03:37:24;;;;;;;12.8;11.4;;;;;;;12.82;89.87402;95196.94;;;;
2019/06/18 03:38:25;;;;;;;12.8;11.6;;;;;;;12.83;90.19629;95197.74;;;;
2019/06/18 03:39:26;;;;;;;12.8;11.6;;;;;;;12.83;90.19629;95197.74;;;;
2019/06/18 03:40:27;;;;;;;12.8;11.6;;;;;;;12.83;90.19629;95197.74;;;;
2019/06/18 03:41:28;;;;;;;12.8;11.6;;;;;;;12.83;90.19629;95197.74;;;;
2019/06/18 03:42:29;;;;;;;12.8;11.6;;;;;;;12.83;90.19629;95197.74;;;;
2019/06/18 03:43:30;;;;;;;12.8;11.6;;;;;;;12.83;90.19629;95197.74;;;;
2019/06/18 03:44:31;;;;;;;12.8;11.6;;;;;;;12.83;90.19629;95197.74;;;;
2019/06/18 03:45:32;;;;;;;12.8;11.6;;;;;;;12.83;90.19629;95197.74;;;;
2019/06/18 03:46:33;;;;;;;12.8;11.6;;;;;;;12.83;90.19629;95197.74;;;;
2019/06/18 03:47:34;;;;;;;12.8;11.6;;;;;;;12.83;90.19629;95197.74;;;;
2019/06/18 03:48:35;;;;;;;12.6;11.3;;;;;;;12.83;90.35742;95197.21;;;;
2019/06/18 03:49:36;;;;;;;12.6;11.3;;;;;;;12.83;90.35742;95197.21;;;;
2019/06/18 03:50:37;;;;;;;12.6;11.3;;;;;;;12.83;90.35742;95197.21;;;;
2019/06/18 03:51:39;;;;;;;12.6;11.3;;;;;;;12.83;90.35742;95197.21;;;;
2019/06/18 03:52:40;;;;;;;12.6;11.3;;;;;;;12.83;90.35742;95197.21;;;;
2019/06/18 03:53:41;;;;;;;12.6;11.3;;;;;;;12.83;90.35742;95197.21;;;;
2019/06/18 03:54:42;;;;;;;12.6;11.3;;;;;;;12.83;90.35742;95197.21;;;;
2019/06/18 03:55:43;;;;;;;12.6;11.3;;;;;;;12.83;90.35742;95197.21;;;;
2019/06/18 03:56:44;;;;;;;12.6;11.3;;;;;;;12.83;90.35742;95197.21;;;;
2019/06/18 03:57:45;;;;;;;12.6;11.3;;;;;;;12.83;90.35742;95197.21;;;;
2019/06/18 03:58:46;;;;;;;12.65;11.55;;;;;;;12.96;90.52344;95195.48;;;;
2019/06/18 03:59:47;;;;;;;12.65;11.55;;;;;;;12.96;90.52344;95195.48;;;;
2019/06/18 04:00:48;;;;;;;12.65;11.55;;;;;;;12.96;90.52344;95195.48;;;;
2019/06/18 04:02:01;;;;;;;12.65;11.55;;;;;;;12.96;90.52344;95195.48;;;;
2019/06/18 04:03:02;;;;;;;12.65;11.55;;;;;;;12.96;90.52344;95195.48;;;;
2019/06/18 04:04:03;;;;;;;12.65;11.55;;;;;;;12.96;90.52344;95195.48;;;;
2019/06/18 04:05:04;;;;;;;12.65;11.55;;;;;;;12.96;90.52344;95195.48;;;;
2019/06/18 04:06:05;;;;;;;12.65;11.55;;;;;;;12.96;90.52344;95195.48;;;;
2019/06/18 04:07:06;;;;;;;12.65;11.55;;;;;;;12.96;90.52344;95195.48;;;;
2019/06/18 04:08:07;;;;;;;12.65;11.55;;;;;;;12.96;90.52344;95195.48;;;;
2019/06/18 04:09:08;;;;;;;12.65;11.55;;;;;;;12.96;90.52344;95195.48;;;;
2019/06/18 04:10:09;;;;;;;14.65;13.3;;;;;;;13.03;90.69727;95198.97;;;;
2019/06/18 04:11:10;;;;;;;14.65;13.3;;;;;;;13.03;90.69727;95198.97;;;;
2019/06/18 04:12:11;;;;;;;14.65;13.3;;;;;;;13.03;90.69727;95198.97;;;;
2019/06/18 04:13:12;;;;;;;14.65;13.3;;;;;;;13.03;90.69727;95198.97;;;;
2019/06/18 04:14:14;;;;;;;14.65;13.3;;;;;;;13.03;90.69727;95198.97;;;;
2019/06/18 04:15:15;;;;;;;14.65;13.3;;;;;;;13.03;90.69727;95198.97;;;;
2019/06/18 04:16:16;;;;;;;14.65;13.3;;;;;;;13.03;90.69727;95198.97;;;;
2019/06/18 04:17:17;;;;;;;14.65;13.3;;;;;;;13.03;90.69727;95198.97;;;;
2019/06/18 04:18:18;;;;;;;14.65;13.3;;;;;;;13.03;90.69727;95198.97;;;;
2019/06/18 04:19:19;;;;;;;14.65;13.3;;;;;;;13.03;90.69727;95198.97;;;;
2019/06/18 04:20:20;;;;;;;13.35;12.2;;;;;;;13.19;90.91309;95194;;;;
2019/06/18 04:21:21;;;;;;;13.35;12.2;;;;;;;13.19;90.91309;95194;;;;
2019/06/18 04:22:22;;;;;;;13.35;12.2;;;;;;;13.19;90.91309;95194;;;;
2019/06/18 04:23:23;;;;;;;13.35;12.2;;;;;;;13.19;90.91309;95194;;;;
2019/06/18 04:24:24;;;;;;;13.35;12.2;;;;;;;13.19;90.91309;95194;;;;
2019/06/18 04:25:25;;;;;;;13.35;12.2;;;;;;;13.19;90.91309;95194;;;;
2019/06/18 04:26:26;;;;;;;13.35;12.2;;;;;;;13.19;90.91309;95194;;;;
2019/06/18 04:27:27;;;;;;;13.35;12.2;;;;;;;13.19;90.91309;95194;;;;
2019/06/18 04:28:29;;;;;;;13.35;12.2;;;;;;;13.19;90.91309;95194;;;;
2019/06/18 04:29:30;;;;;;;13.35;12.2;;;;;;;13.19;90.91309;95194;;;;
2019/06/18 04:30:31;;;;;;;13.35;12.2;;;;;;;13.19;90.91309;95194;;;;
2019/06/18 04:31:32;;;;;;;15.55;13.65;;;;;;;13.28;91.04785;95188.4;;;;
2019/06/18 04:32:33;;;;;;;15.55;13.65;;;;;;;13.28;91.04785;95188.4;;;;
2019/06/18 04:33:34;;;;;;;15.55;13.65;;;;;;;13.28;91.04785;95188.4;;;;
2019/06/18 04:34:35;;;;;;;15.55;13.65;;;;;;;13.28;91.04785;95188.4;;;;
2019/06/18 04:35:36;;;;;;;15.55;13.65;;;;;;;13.28;91.04785;95188.4;;;;
2019/06/18 04:36:37;;;;;;;15.55;13.65;;;;;;;13.28;91.04785;95188.4;;;;
2019/06/18 04:37:38;;;;;;;15.55;13.65;;;;;;;13.28;91.04785;95188.4;;;;
2019/06/18 04:38:39;;;;;;;15.55;13.65;;;;;;;13.28;91.04785;95188.4;;;;
2019/06/18 04:39:40;;;;;;;15.55;13.65;;;;;;;13.28;91.04785;95188.4;;;;
2019/06/18 04:40:41;;;;;;;15.55;13.65;;;;;;;13.28;91.04785;95188.4;;;;
2019/06/18 04:41:42;;;;;;;16.25;14.7;;;;;;;13.56;91.33203;95197.27;;;;
2019/06/18 04:42:43;;;;;;;16.25;14.7;;;;;;;13.56;91.33203;95197.27;;;;
2019/06/18 04:43:44;;;;;;;16.25;14.7;;;;;;;13.56;91.33203;95197.27;;;;
2019/06/18 04:44:45;;;;;;;16.25;14.7;;;;;;;13.56;91.33203;95197.27;;;;
2019/06/18 04:45:47;;;;;;;16.25;14.7;;;;;;;13.56;91.33203;95197.27;;;;
2019/06/18 04:46:48;;;;;;;16.25;14.7;;;;;;;13.56;91.33203;95197.27;;;;
2019/06/18 04:47:49;;;;;;;16.25;14.7;;;;;;;13.56;91.33203;95197.27;;;;
2019/06/18 04:48:50;;;;;;;16.25;14.7;;;;;;;13.56;91.33203;95197.27;;;;
2019/06/18 04:49:51;;;;;;;16.25;14.7;;;;;;;13.56;91.33203;95197.27;;;;
2019/06/18 04:50:52;;;;;;;16.25;14.7;;;;;;;13.56;91.33203;95197.27;;;;
2019/06/18 04:51:53;;;;;;;14.45;13.05;;;;;;;13.89;91.21777;95211.94;;;;
2019/06/18 04:52:54;;;;;;;14.45;13.05;;;;;;;13.89;91.21777;95211.94;;;;
2019/06/18 04:53:55;;;;;;;14.45;13.05;;;;;;;13.89;91.21777;95211.94;;;;
2019/06/18 04:54:56;;;;;;;14.45;13.05;;;;;;;13.89;91.21777;95211.94;;;;
2019/06/18 04:55:57;;;;;;;14.45;13.05;;;;;;;13.89;91.21777;95211.94;;;;
2019/06/18 04:56:58;;;;;;;14.45;13.05;;;;;;;13.89;91.21777;95211.94;;;;
2019/06/18 04:57:59;;;;;;;14.45;13.05;;;;;;;13.89;91.21777;95211.94;;;;
2019/06/18 04:59:01;;;;;;;14.45;13.05;;;;;;;13.89;91.21777;95211.94;;;;
2019/06/18 05:00:02;;;;;;;14.45;13.05;;;;;;;13.89;91.21777;95211.94;;;;
2019/06/18 05:01:04;;;;;;;14.45;13.05;;;;;;;13.89;91.21777;95211.94;;;;
2019/06/18 05:02:05;;;;;;;14.45;13.05;;;;;;;13.89;91.21777;95211.94;;;;
2019/06/18 05:03:06;;;;;;;15.25;13.15;;;;;;;14.35;91.15234;95205.44;;;;
2019/06/18 05:04:07;;;;;;;15.25;13.15;;;;;;;14.35;91.15234;95205.44;;;;
2019/06/18 05:05:08;;;;;;;15.25;13.15;;;;;;;14.35;91.15234;95205.44;;;;
2019/06/18 05:06:09;;;;;;;15.25;13.15;;;;;;;14.35;91.15234;95205.44;;;;
2019/06/18 05:07:10;;;;;;;15.25;13.15;;;;;;;14.35;91.15234;95205.44;;;;
2019/06/18 05:08:11;;;;;;;15.25;13.15;;;;;;;14.35;91.15234;95205.44;;;;
2019/06/18 05:09:12;;;;;;;15.25;13.15;;;;;;;14.35;91.15234;95205.44;;;;
2019/06/18 05:10:13;;;;;;;15.25;13.15;;;;;;;14.35;91.15234;95205.44;;;;
2019/06/18 05:11:14;;;;;;;15.25;13.15;;;;;;;14.35;91.15234;95205.44;;;;
2019/06/18 05:12:16;;;;;;;15.25;13.15;;;;;;;14.35;91.15234;95205.44;;;;
2019/06/18 05:13:17;;;;;;;17.15;14.95;;;;;;;14.79;90.84375;95215.89;;;;
2019/06/18 05:14:18;;;;;;;17.15;14.95;;;;;;;14.79;90.84375;95215.89;;;;
2019/06/18 05:15:19;;;;;;;17.15;14.95;;;;;;;14.79;90.84375;95215.89;;;;
2019/06/18 05:16:29;;;;;;;17.15;14.95;;;;;;;14.79;90.84375;95215.89;;;;
2019/06/18 05:17:30;;;;;;;17.15;14.95;;;;;;;14.79;90.84375;95215.89;;;;
2019/06/18 05:18:31;;;;;;;17.15;14.95;;;;;;;14.79;90.84375;95215.89;;;;
2019/06/18 05:19:32;;;;;;;17.15;14.95;;;;;;;14.79;90.84375;95215.89;;;;
2019/06/18 05:20:34;;;;;;;17.15;14.95;;;;;;;14.79;90.84375;95215.89;;;;
2019/06/18 05:21:35;;;;;;;17.15;14.95;;;;;;;14.79;90.84375;95215.89;;;;
2019/06/18 05:22:36;;;;;;;17.15;14.95;;;;;;;14.79;90.84375;95215.89;;;;
2019/06/18 05:23:37;;;;;;;15.95;14.5;;;;;;;15.27;90.55469;95226.06;;;;
2019/06/18 05:24:38;;;;;;;15.95;14.5;;;;;;;15.27;90.55469;95226.06;;;;
2019/06/18 05:25:39;;;;;;;15.95;14.5;;;;;;;15.27;90.55469;95226.06;;;;
2019/06/18 05:26:40;;;;;;;15.95;14.5;;;;;;;15.27;90.55469;95226.06;;;;
2019/06/18 05:27:41;;;;;;;15.95;14.5;;;;;;;15.27;90.55469;95226.06;;;;
2019/06/18 05:28:42;;;;;;;15.95;14.5;;;;;;;15.27;90.55469;95226.06;;;;
2019/06/18 05:29:43;;;;;;;15.95;14.5;;;;;;;15.27;90.55469;95226.06;;;;
2019/06/18 05:30:44;;;;;;;15.95;14.5;;;;;;;15.27;90.55469;95226.06;;;;
2019/06/18 05:31:45;;;;;;;15.95;14.5;;;;;;;15.27;90.55469;95226.06;;;;
2019/06/18 05:32:46;;;;;;;15.95;14.5;;;;;;;15.27;90.55469;95226.06;;;;
2019/06/18 05:33:47;;;;;;;15.95;14.5;;;;;;;15.27;90.55469;95226.06;;;;
2019/06/18 05:34:49;;;;;;;16;14.4;;;;;;;15.73;90.27051;95231.12;;;;
2019/06/18 05:35:50;;;;;;;16;14.4;;;;;;;15.73;90.27051;95231.12;;;;
2019/06/18 05:36:51;;;;;;;16;14.4;;;;;;;15.73;90.27051;95231.12;;;;
2019/06/18 05:37:52;;;;;;;16;14.4;;;;;;;15.73;90.27051;95231.12;;;;
2019/06/18 05:38:53;;;;;;;16;14.4;;;;;;;15.73;90.27051;95231.12;;;;
2019/06/18 05:39:54;;;;;;;16;14.4;;;;;;;15.73;90.27051;95231.12;;;;
2019/06/18 05:40:55;;;;;;;16;14.4;;;;;;;15.73;90.27051;95231.12;;;;
2019/06/18 05:41:56;;;;;;;16;14.4;;;;;;;15.73;90.27051;95231.12;;;;
2019/06/18 05:42:57;;;;;;;16;14.4;;;;;;;15.73;90.27051;95231.12;;;;
2019/06/18 05:43:58;;;;;;;16;14.4;;;;;;;15.73;90.27051;95231.12;;;;